Time;durP1;ratioP1;P1;durP2;ratioP2;P2;SDS_P1;SDS_P2;PMS_P1;PMS_P2;Temp;Humidity;BMP_temperature;BMP_pressure;BME280_temperature;BME280_humidity;BME280_pressure;Samples;Min_cycle;Max_cycle;Signal;HPM_P1;HPM_P2
2022/02/19 00:01:11;;;;;;;9.55;1.48;;;;;;;9.87;44.28;100277.84;5014235;28;124078;-82
2022/02/19 00:03:38;;;;;;;6.28;1.00;;;;;;;9.85;44.24;100285.03;5013871;28;114457;-81
2022/02/19 00:06:05;;;;;;;6.28;1.10;;;;;;;9.82;44.18;100293.09;4996400;28;112245;-81
2022/02/19 00:08:32;;;;;;;7.32;1.40;;;;;;;9.81;44.42;100304.59;4995751;28;123686;-80
2022/02/19 00:10:59;;;;;;;7.47;1.20;;;;;;;9.80;44.43;100318.78;4995624;28;123694;-80
2022/02/19 00:13:27;;;;;;;4.88;1.10;;;;;;;9.79;44.57;100311.75;5012985;28;113582;-81
2022/02/19 00:15:54;;;;;;;8.73;1.30;;;;;;;9.79;44.46;100343.50;5012840;28;112999;-81
2022/02/19 00:18:21;;;;;;;6.28;1.30;;;;;;;9.78;44.29;100320.63;5012919;28;123713;-80
2022/02/19 00:20:53;;;;;;;5.55;1.25;;;;;;;9.79;44.56;100330.28;5013486;28;124177;-81
2022/02/19 00:23:21;;;;;;;7.28;1.25;;;;;;;9.78;44.22;100336.50;5012297;28;113245;-80
2022/02/19 00:25:48;;;;;;;7.20;1.02;;;;;;;9.78;44.72;100347.09;5013273;28;114038;-81
2022/02/19 00:28:15;;;;;;;6.07;1.10;;;;;;;9.77;44.43;100334.78;5013293;27;123118;-81
2022/02/19 00:30:43;;;;;;;5.78;1.08;;;;;;;9.75;44.46;100347.22;5012308;28;124093;-81
2022/02/19 00:33:10;;;;;;;7.50;1.30;;;;;;;9.74;44.47;100356.09;5011981;28;114721;-80
2022/02/19 00:35:37;;;;;;;8.07;1.10;;;;;;;9.71;44.46;100351.81;5015379;28;114726;-81
2022/02/19 00:38:04;;;;;;;7.85;1.10;;;;;;;9.71;44.55;100361.53;5014440;28;124095;-82
2022/02/19 00:40:31;;;;;;;6.53;1.10;;;;;;;9.71;44.63;100364.19;5012122;28;123278;-81
2022/02/19 00:42:58;;;;;;;8.63;1.13;;;;;;;9.69;44.55;100376.63;5013331;28;114323;-81
2022/02/19 00:45:25;;;;;;;5.30;1.27;;;;;;;9.68;44.88;100382.84;5012534;28;114028;-81
2022/02/19 00:47:53;;;;;;;7.45;1.20;;;;;;;9.67;45.01;100397.84;5012504;28;123557;-81
2022/02/19 00:50:21;;;;;;;7.10;1.20;;;;;;;9.68;45.17;100403.97;4996643;28;123903;-81
2022/02/19 00:52:48;;;;;;;5.03;1.23;;;;;;;9.69;45.02;100413.66;5012434;28;113688;-81
2022/02/19 00:55:15;;;;;;;6.70;1.23;;;;;;;9.69;44.89;100416.28;4996233;28;113383;-80
2022/02/19 00:57:43;;;;;;;6.30;1.27;;;;;;;9.70;45.25;100423.28;5011954;28;124619;-80
2022/02/19 01:00:10;;;;;;;7.15;1.20;;;;;;;9.70;45.10;100418.88;5011629;28;123989;-80
2022/02/19 01:02:49;;;;;;;4.18;0.90;;;;;;;9.70;45.32;100418.88;5011776;28;114137;-80
2022/02/19 01:05:16;;;;;;;9.07;1.33;;;;;;;9.71;45.22;100430.28;5012992;28;114036;-81
2022/02/19 01:07:43;;;;;;;5.88;1.35;;;;;;;9.71;45.21;100440.88;5011792;28;123534;-80
2022/02/19 01:10:11;;;;;;;5.15;1.02;;;;;;;9.71;45.19;100435.56;4996112;28;123392;-81
2022/02/19 01:12:38;;;;;;;9.23;1.30;;;;;;;9.71;45.02;100447.00;4997185;28;113574;-81
2022/02/19 01:15:07;;;;;;;5.65;1.13;;;;;;;9.71;44.99;100462.03;4976307;28;113710;-81
2022/02/19 01:17:35;;;;;;;9.32;1.27;;;;;;;9.71;45.34;100443.50;4976043;28;125091;-81
2022/02/19 01:20:05;;;;;;;6.03;1.00;;;;;;;9.69;44.97;100448.03;4993945;28;123253;-82
2022/02/19 01:22:33;;;;;;;5.55;1.20;;;;;;;9.68;45.13;100454.22;4978109;28;114804;-81
2022/02/19 01:25:02;;;;;;;6.18;1.40;;;;;;;9.66;45.00;100464.03;4994234;28;113978;-80
2022/02/19 01:27:29;;;;;;;7.43;1.13;;;;;;;9.65;45.22;100467.59;4977413;28;124545;-81
2022/02/19 01:29:58;;;;;;;8.10;1.33;;;;;;;9.64;45.41;100484.38;4977372;28;122736;-81
2022/02/19 01:32:25;;;;;;;4.20;1.20;;;;;;;9.62;45.47;100488.91;4993499;28;113760;-81
2022/02/19 01:34:52;;;;;;;5.82;1.13;;;;;;;9.63;45.65;100490.63;4993590;28;113788;-81
2022/02/19 01:37:20;;;;;;;9.80;1.40;;;;;;;9.63;45.32;100501.19;4992841;28;124427;-81
2022/02/19 01:39:47;;;;;;;4.97;1.35;;;;;;;9.63;45.27;100501.19;4975409;28;123037;-80
2022/02/19 01:42:15;;;;;;;7.38;1.48;;;;;;;9.63;45.44;100519.72;4976078;28;113899;-81
2022/02/19 01:44:45;;;;;;;6.45;1.40;;;;;;;9.65;45.42;100515.22;4976331;28;112321;-81
2022/02/19 01:47:15;;;;;;;7.47;1.48;;;;;;;9.64;45.19;100508.19;4975269;28;122052;-81
2022/02/19 01:49:42;;;;;;;6.05;1.30;;;;;;;9.65;45.26;100523.13;4975574;28;123516;-81
2022/02/19 01:52:12;;;;;;;8.18;1.00;;;;;;;9.64;45.34;100524.06;4975836;28;113718;-81
2022/02/19 01:54:40;;;;;;;5.22;0.80;;;;;;;9.66;45.32;100530.13;4975476;28;113583;-80
2022/02/19 01:57:20;;;;;;;6.25;1.27;;;;;;;9.66;45.34;100538.06;4961867;28;123347;-80
2022/02/19 01:59:56;;;;;;;4.55;1.02;;;;;;;9.64;45.22;100561.91;4975305;28;124771;-81
2022/02/19 02:02:46;;;;;;;5.05;1.08;;;;;;;9.65;45.38;100573.38;4982374;28;112752;-79
2022/02/19 02:05:40;;;;;;;3.80;0.90;;;;;;;9.64;45.46;100566.34;4981513;28;112273;-81
2022/02/19 02:08:08;;;;;;;5.55;1.40;;;;;;;9.63;45.54;100556.72;4981380;28;123671;-80
2022/02/19 02:10:35;;;;;;;5.93;1.05;;;;;;;9.64;45.52;100576.94;4981616;28;123142;-81
2022/02/19 02:13:22;;;;;;;4.97;1.13;;;;;;;9.63;45.57;100569.94;4992637;28;114659;-81
2022/02/19 02:15:52;;;;;;;6.03;1.02;;;;;;;9.64;45.58;100574.28;4972625;28;114890;-81
2022/02/19 02:18:34;;;;;;;5.18;1.13;;;;;;;9.64;45.58;100584.88;4958124;28;123394;-81
2022/02/19 02:21:01;;;;;;;7.75;1.42;;;;;;;9.64;45.51;100592.81;4988611;28;123606;-80
2022/02/19 02:23:28;;;;;;;11.43;1.10;;;;;;;9.64;45.41;100595.44;4989919;28;114631;-81
2022/02/19 02:25:57;;;;;;;5.93;1.27;;;;;;;9.64;45.79;100603.38;4957738;28;113953;-80
2022/02/19 02:28:26;;;;;;;7.43;1.60;;;;;;;9.63;45.63;100596.38;4973007;28;124088;-80
2022/02/19 02:30:53;;;;;;;10.77;1.20;;;;;;;9.63;45.71;100601.69;4973358;28;123408;-82
2022/02/19 02:33:22;;;;;;;5.75;1.40;;;;;;;9.62;45.54;100610.53;4973163;28;113864;-80
2022/02/19 02:35:55;;;;;;;5.93;1.45;;;;;;;9.63;45.64;100623.69;4973805;28;113392;-80
2022/02/19 02:38:34;;;;;;;6.78;1.17;;;;;;;9.62;45.61;100626.38;4973449;28;123268;-79
2022/02/19 02:41:04;;;;;;;6.07;1.05;;;;;;;9.61;45.44;100624.69;4972514;28;122775;-79
2022/02/19 02:43:32;;;;;;;5.72;1.10;;;;;;;9.61;45.70;100629.97;4973515;28;113711;-79
2022/02/19 02:46:00;;;;;;;7.18;1.30;;;;;;;9.61;45.64;100624.69;4973559;28;112383;-81
2022/02/19 02:48:27;;;;;;;5.72;1.17;;;;;;;9.59;45.46;100631.81;4991441;28;123437;-80
2022/02/19 02:50:56;;;;;;;5.82;1.15;;;;;;;9.58;45.57;100638.03;4973563;28;123452;-80
2022/02/19 02:53:46;;;;;;;9.13;1.25;;;;;;;9.57;45.62;100646.88;4976861;28;113275;-81
2022/02/19 02:56:14;;;;;;;5.15;1.13;;;;;;;9.55;45.65;100645.19;4975744;28;113173;-81
2022/02/19 02:58:42;;;;;;;5.85;1.10;;;;;;;9.54;45.93;100654.03;4995419;28;122834;-80
2022/02/19 03:01:09;;;;;;;3.95;1.02;;;;;;;9.52;45.65;100663.81;4990983;28;123950;-81
2022/02/19 03:03:39;;;;;;;5.20;1.25;;;;;;;9.52;45.68;100674.38;4973270;28;114726;-82
2022/02/19 03:06:08;;;;;;;7.50;1.27;;;;;;;9.52;45.92;100673.53;4973887;28;114323;-81
2022/02/19 03:08:36;;;;;;;7.25;1.33;;;;;;;9.51;45.75;100670.03;4991375;28;123270;-80
2022/02/19 03:11:03;;;;;;;4.25;1.10;;;;;;;9.50;45.70;100681.53;4973458;28;122254;-81
2022/02/19 03:13:34;;;;;;;4.75;1.20;;;;;;;9.50;45.70;100676.22;4973843;28;114486;-81
2022/02/19 03:16:01;;;;;;;8.45;1.25;;;;;;;9.52;45.56;100690.25;4995947;28;114826;-80
2022/02/19 03:18:29;;;;;;;5.60;1.17;;;;;;;9.50;45.75;100686.81;4977252;28;123447;-80
2022/02/19 03:20:58;;;;;;;5.95;1.30;;;;;;;9.52;45.88;100695.53;4993564;28;124170;-81
2022/02/19 03:23:25;;;;;;;5.63;1.25;;;;;;;9.51;45.65;100709.69;4977511;28;115727;-81
2022/02/19 03:25:53;;;;;;;6.40;1.23;;;;;;;9.51;45.76;100714.97;4978549;28;113358;-81
2022/02/19 03:28:20;;;;;;;5.93;1.48;;;;;;;9.50;45.65;100713.25;4977190;28;123940;-81
2022/02/19 03:30:54;;;;;;;6.28;1.20;;;;;;;9.48;45.82;100723.03;4977488;28;123354;-80
2022/02/19 03:33:37;;;;;;;5.55;1.10;;;;;;;9.47;45.98;100729.22;4977137;28;114241;-80
2022/02/19 03:36:06;;;;;;;5.20;1.05;;;;;;;9.47;46.22;100739.81;4977670;28;114803;-80
2022/02/19 03:38:33;;;;;;;7.43;1.20;;;;;;;9.47;46.30;100744.25;4961262;28;123695;-80
2022/02/19 03:41:15;;;;;;;6.22;1.15;;;;;;;9.46;46.03;100751.31;5033262;28;96986;-67
2022/02/19 03:43:42;;;;;;;10.60;1.10;;;;;;;9.47;45.84;100760.09;5030129;28;106618;-67
2022/02/19 03:46:10;;;;;;;9.23;1.20;;;;;;;9.45;46.07;100762.81;5029837;27;123601;-67
2022/02/19 03:49:02;;;;;;;7.70;1.25;;;;;;;9.46;46.15;100764.53;5029402;28;123474;-67
2022/02/19 03:51:33;;;;;;;6.47;1.20;;;;;;;9.47;45.99;100784.75;5022689;27;106392;-67
2022/02/19 03:54:01;;;;;;;7.50;1.13;;;;;;;9.47;46.22;100797.97;5023360;28;106345;-68
2022/02/19 03:56:31;;;;;;;8.27;1.27;;;;;;;9.47;46.06;100797.97;5029514;28;123255;-67
2022/02/19 03:59:03;;;;;;;8.15;1.40;;;;;;;9.48;46.01;100794.41;5013142;28;122923;-66
2022/02/19 04:01:32;;;;;;;10.15;1.63;;;;;;;9.48;46.03;100818.19;5029203;27;106920;-67
2022/02/19 04:04:06;;;;;;;10.55;1.35;;;;;;;9.48;45.94;100804.97;5014125;28;106453;-67
2022/02/19 04:06:36;;;;;;;6.45;1.27;;;;;;;9.48;46.19;100815.56;5029014;28;123102;-68
2022/02/19 04:09:04;;;;;;;8.05;1.42;;;;;;;9.46;46.05;100820.06;5029419;27;123449;-67
2022/02/19 04:11:33;;;;;;;7.25;1.10;;;;;;;9.47;45.94;100834.13;5029443;27;106697;-67
2022/02/19 04:14:05;;;;;;;9.95;1.40;;;;;;;9.46;46.36;100849.13;5013275;28;106400;-67
2022/02/19 04:16:41;;;;;;;7.22;1.05;;;;;;;9.45;45.89;100836.81;5013398;28;127196;-67
2022/02/19 04:19:09;;;;;;;6.20;1.15;;;;;;;9.45;45.89;100842.09;5029291;27;123019;-67
2022/02/19 04:21:37;;;;;;;6.45;1.30;;;;;;;9.44;45.93;100850.97;5029644;27;107267;-67
2022/02/19 04:24:09;;;;;;;7.35;1.40;;;;;;;9.44;46.08;100850.97;5013603;28;106594;-67
2022/02/19 04:26:37;;;;;;;10.57;1.30;;;;;;;9.43;45.75;100865.09;5029136;27;123308;-67
2022/02/19 04:29:04;;;;;;;10.07;1.60;;;;;;;9.42;45.76;100860.75;5027267;28;123116;-67
2022/02/19 04:31:44;;;;;;;9.45;1.40;;;;;;;9.42;45.56;100867.81;5028499;27;109190;-68
2022/02/19 04:34:19;;;;;;;4.63;1.10;;;;;;;9.41;45.68;100866.94;5029474;27;109347;-68
2022/02/19 04:36:49;;;;;;;8.55;1.50;;;;;;;9.41;45.81;100871.38;5028924;27;123225;-68
2022/02/19 04:39:17;;;;;;;5.95;1.13;;;;;;;9.40;45.73;100886.38;5029555;28;124195;-68
2022/02/19 04:41:45;;;;;;;6.25;1.10;;;;;;;9.40;45.79;100886.38;5028845;27;106675;-67
2022/02/19 04:44:16;;;;;;;7.63;1.20;;;;;;;9.40;45.75;100891.69;5029399;27;106351;-67
2022/02/19 04:46:44;;;;;;;6.35;0.88;;;;;;;9.39;45.60;100884.66;5012713;27;123119;-68
2022/02/19 04:49:11;;;;;;;9.65;1.30;;;;;;;9.41;45.87;100897.81;5028896;27;123055;-68
2022/02/19 04:51:40;;;;;;;6.47;1.17;;;;;;;9.40;45.39;100907.53;5020451;27;106462;-67
2022/02/19 04:54:08;;;;;;;7.78;1.50;;;;;;;9.39;45.70;100905.81;5015902;28;106576;-67
2022/02/19 04:56:35;;;;;;;9.32;1.35;;;;;;;9.39;45.81;100905.81;5015120;28;123640;-68
2022/02/19 04:59:04;;;;;;;10.30;1.08;;;;;;;9.39;45.73;100905.81;4998711;28;122905;-67
2022/02/19 05:01:38;;;;;;;9.73;1.38;;;;;;;9.40;45.90;100922.50;5015216;28;106395;-68
2022/02/19 05:04:11;;;;;;;8.30;1.33;;;;;;;9.39;45.93;100926.94;5015532;28;106160;-67
2022/02/19 05:06:57;;;;;;;9.57;1.40;;;;;;;9.37;45.83;100934.06;5015161;28;123136;-67
2022/02/19 05:09:24;;;;;;;7.63;1.08;;;;;;;9.33;46.04;100937.75;5013094;28;123920;-67
2022/02/19 05:12:00;;;;;;;5.70;1.10;;;;;;;9.29;45.69;100936.16;5014986;28;106545;-68
2022/02/19 05:14:27;;;;;;;11.75;1.63;;;;;;;9.23;45.51;100946.94;5015736;28;106445;-69
2022/02/19 05:16:59;;;;;;;7.40;1.83;;;;;;;9.12;46.18;100956.16;5014918;28;123212;-67
2022/02/19 05:19:37;;;;;;;8.18;1.65;;;;;;;9.04;46.14;100966.16;5014778;28;126415;-65
2022/02/19 05:22:05;;;;;;;6.47;1.83;;;;;;;8.96;46.29;100961.13;5014919;28;106762;-65
2022/02/19 05:24:36;;;;;;;7.55;1.25;;;;;;;8.90;46.52;100960.50;5015568;28;105709;-66
2022/02/19 05:27:10;;;;;;;6.15;1.30;;;;;;;8.86;46.91;100958.91;5014872;28;123252;-66
2022/02/19 05:29:38;;;;;;;8.07;1.10;;;;;;;8.83;46.82;100970.41;5014776;28;123556;-66
2022/02/19 05:32:09;;;;;;;8.90;1.73;;;;;;;8.81;46.82;100960.81;5014863;28;106785;-66
2022/02/19 05:34:43;;;;;;;8.38;1.20;;;;;;;8.80;46.91;100964.38;5015677;28;106647;-66
2022/02/19 05:37:11;;;;;;;5.70;1.00;;;;;;;8.77;46.81;100966.22;5014273;28;123678;-66
2022/02/19 05:39:46;;;;;;;7.43;1.63;;;;;;;8.77;47.26;100971.50;5013960;28;123001;-66
2022/02/19 05:42:15;;;;;;;9.38;1.50;;;;;;;8.79;47.18;100973.22;5013962;28;107801;-66
2022/02/19 05:44:46;;;;;;;10.20;1.40;;;;;;;8.79;47.21;100973.22;5015221;28;106530;-66
2022/02/19 05:47:20;;;;;;;8.23;1.00;;;;;;;8.79;47.17;100979.38;5014355;28;123736;-66
2022/02/19 05:50:08;;;;;;;11.02;1.27;;;;;;;8.80;47.26;100980.22;5014459;28;125387;-66
2022/02/19 05:52:50;;;;;;;9.40;1.38;;;;;;;8.82;47.28;100994.25;5014861;28;109806;-66
2022/02/19 05:55:28;;;;;;;5.43;0.95;;;;;;;8.84;47.50;100995.06;5000070;28;106546;-66
2022/02/19 05:57:56;;;;;;;8.27;1.45;;;;;;;8.87;47.09;101008.13;5014617;28;123786;-66
2022/02/19 06:00:25;;;;;;;6.75;1.08;;;;;;;8.89;47.14;101011.59;5011872;28;124703;-65
2022/02/19 06:02:52;;;;;;;7.70;1.40;;;;;;;8.92;47.27;100998.28;5013520;28;107677;-66
2022/02/19 06:05:20;;;;;;;9.05;1.38;;;;;;;8.96;47.10;101010.47;5014491;28;106422;-66
2022/02/19 06:07:49;;;;;;;8.32;1.52;;;;;;;8.97;47.15;101004.28;5012248;28;124649;-66
2022/02/19 06:10:17;;;;;;;9.30;1.92;;;;;;;8.97;47.27;101014.84;5011661;28;123967;-67
2022/02/19 06:12:44;;;;;;;8.77;1.17;;;;;;;8.97;47.01;101004.28;5015244;28;107785;-67
2022/02/19 06:15:15;;;;;;;5.55;1.23;;;;;;;8.98;47.17;101011.25;5014479;28;106250;-66
2022/02/19 06:18:05;;;;;;;4.53;1.15;;;;;;;8.97;47.23;101017.47;5014220;28;125088;-67
2022/02/19 06:20:35;;;;;;;6.30;1.40;;;;;;;8.99;47.65;101023.56;5013444;28;123485;-67
2022/02/19 06:23:08;;;;;;;8.77;1.92;;;;;;;9.00;47.50;101030.56;5014270;28;106547;-67
2022/02/19 06:25:37;;;;;;;7.18;1.30;;;;;;;8.99;47.44;101034.13;5014495;28;106456;-67
2022/02/19 06:28:05;;;;;;;5.50;1.27;;;;;;;8.94;47.63;101042.19;5013828;28;123992;-67
2022/02/19 06:30:35;;;;;;;6.40;1.25;;;;;;;8.91;47.59;101042.34;5013213;28;123659;-67
2022/02/19 06:33:07;;;;;;;5.63;1.00;;;;;;;8.88;47.52;101046.84;4997842;28;106617;-67
2022/02/19 06:35:36;;;;;;;4.22;1.10;;;;;;;8.84;47.45;101056.66;5014554;28;106533;-69
2022/02/19 06:38:22;;;;;;;8.00;1.50;;;;;;;8.79;47.70;101058.59;5013736;28;123487;-67
2022/02/19 06:40:55;;;;;;;7.07;1.25;;;;;;;8.75;47.79;101057.81;5011875;28;122943;-67
2022/02/19 06:43:23;;;;;;;9.80;1.25;;;;;;;8.70;48.08;101054.50;5013863;28;107736;-67
2022/02/19 06:45:52;;;;;;;5.35;1.08;;;;;;;8.66;47.62;101073.97;5013948;28;106451;-67
2022/02/19 06:48:21;;;;;;;5.82;1.20;;;;;;;8.63;47.79;101078.53;5012732;28;123263;-67
2022/02/19 06:50:50;;;;;;;9.50;1.48;;;;;;;8.62;47.92;101082.06;5012481;28;123128;-67
2022/02/19 06:53:17;;;;;;;8.85;1.50;;;;;;;8.58;48.07;101091.84;5013125;28;106933;-67
2022/02/19 06:55:44;;;;;;;6.55;1.27;;;;;;;8.56;48.49;101093.69;5014678;28;106368;-67
2022/02/19 06:58:14;;;;;;;5.60;1.30;;;;;;;8.55;48.32;101086.66;5013922;28;123135;-67
2022/02/19 07:00:52;;;;;;;12.25;1.17;;;;;;;8.51;48.22;101095.59;5012974;28;123142;-67
2022/02/19 07:03:20;;;;;;;7.90;1.30;;;;;;;8.47;48.15;101100.13;5014299;28;106589;-67
2022/02/19 07:05:52;;;;;;;6.90;1.30;;;;;;;8.45;48.22;101101.94;5014383;28;106456;-67
2022/02/19 07:08:31;;;;;;;8.38;1.38;;;;;;;8.44;48.61;101110.78;5013534;28;126209;-67
2022/02/19 07:10:59;;;;;;;5.97;1.23;;;;;;;8.43;48.79;101119.63;5012886;28;123454;-67
2022/02/19 07:13:26;;;;;;;7.97;1.60;;;;;;;8.42;48.79;101122.28;5013803;28;106930;-67
2022/02/19 07:15:53;;;;;;;8.60;1.30;;;;;;;8.41;48.35;101131.09;5013982;28;106679;-67
2022/02/19 07:18:41;;;;;;;6.00;1.25;;;;;;;8.41;48.91;101131.09;5010097;28;125290;-67
2022/02/19 07:21:12;;;;;;;9.43;1.10;;;;;;;8.39;48.92;101139.94;5012277;28;124050;-67
2022/02/19 07:23:39;;;;;;;8.07;1.50;;;;;;;8.40;49.00;101140.81;4997342;28;107296;-67
2022/02/19 07:26:08;;;;;;;12.85;1.65;;;;;;;8.41;48.75;101139.88;5014045;28;106592;-67
2022/02/19 07:28:37;;;;;;;6.00;1.75;;;;;;;8.41;48.87;101146.94;5013819;28;123317;-67
2022/02/19 07:31:05;;;;;;;8.43;1.42;;;;;;;8.42;48.80;101159.25;5012695;28;123166;-67
2022/02/19 07:33:32;;;;;;;7.63;1.10;;;;;;;8.42;48.94;101161.88;5013902;28;106675;-67
2022/02/19 07:36:04;;;;;;;5.32;0.98;;;;;;;8.45;49.11;101164.44;5013730;28;106459;-67
2022/02/19 07:38:34;;;;;;;6.65;1.25;;;;;;;8.48;48.68;101169.63;5013419;28;123307;-67
2022/02/19 07:41:01;;;;;;;10.70;1.70;;;;;;;8.48;49.01;101174.91;4996012;28;123095;-67
2022/02/19 07:43:49;;;;;;;7.80;1.23;;;;;;;8.49;49.12;101176.63;5012836;28;108021;-67
2022/02/19 07:46:28;;;;;;;7.20;1.55;;;;;;;8.50;48.97;101178.38;5013933;28;106825;-67
2022/02/19 07:58:18;;;;;;;6.00;1.05;;;;;;;8.54;49.05;101198.47;5013049;28;108852;-67
2022/02/19 08:00:56;;;;;;;8.70;2.00;;;;;;;8.55;49.25;101202.81;5012052;28;124056;-68
2022/02/19 08:03:29;;;;;;;6.88;1.33;;;;;;;8.57;49.25;101201.03;4995581;28;123766;-67
2022/02/19 08:06:00;;;;;;;4.80;1.33;;;;;;;8.59;49.09;101204.47;5011919;28;112795;-67
2022/02/19 08:08:29;;;;;;;5.65;1.50;;;;;;;8.61;48.88;101212.34;5012191;28;108757;-67
2022/02/19 08:11:00;;;;;;;8.02;1.33;;;;;;;8.63;48.89;101216.69;5011494;28;123128;-67
2022/02/19 08:13:28;;;;;;;6.05;1.38;;;;;;;8.63;48.63;101221.94;5012468;28;124007;-67
2022/02/19 08:15:55;;;;;;;10.95;1.33;;;;;;;8.65;49.08;101230.69;5012622;28;109310;-67
2022/02/19 08:18:24;;;;;;;8.38;1.20;;;;;;;8.67;48.92;101234.16;5011557;28;108711;-67
2022/02/19 08:20:52;;;;;;;8.90;1.50;;;;;;;8.69;48.98;101236.75;5011231;28;124611;-67
2022/02/19 08:23:22;;;;;;;8.35;1.38;;;;;;;8.71;49.04;101235.78;5012460;28;123889;-67
2022/02/19 08:25:54;;;;;;;5.97;1.20;;;;;;;8.73;48.79;101244.50;5013617;28;109216;-67
2022/02/19 08:28:22;;;;;;;10.63;1.38;;;;;;;8.75;49.22;101244.47;5017083;28;109147;-67
2022/02/19 08:30:53;;;;;;;5.88;1.23;;;;;;;8.79;49.19;101247.88;5012599;28;124858;-67
2022/02/19 08:33:20;;;;;;;7.63;1.30;;;;;;;8.83;49.27;101252.16;5015450;28;124025;-67
2022/02/19 08:35:47;;;;;;;9.05;1.30;;;;;;;8.85;48.91;101252.97;5015903;28;108274;-67
2022/02/19 08:38:15;;;;;;;9.63;1.42;;;;;;;8.89;48.82;101249.31;5014743;28;108958;-67
2022/02/19 08:40:42;;;;;;;5.35;1.50;;;;;;;8.91;49.10;101252.75;5014925;28;124098;-67
2022/02/19 08:43:10;;;;;;;9.68;1.20;;;;;;;8.92;48.77;101257.16;5015226;28;122967;-67
2022/02/19 08:45:39;;;;;;;6.13;1.20;;;;;;;8.94;49.07;101269.38;5014456;28;110458;-67
2022/02/19 08:48:06;;;;;;;9.35;1.52;;;;;;;8.97;49.41;101257.88;5015746;28;108885;-67
2022/02/19 08:50:37;;;;;;;7.95;1.30;;;;;;;8.97;48.86;101268.44;4997873;28;123141;-67
2022/02/19 08:53:09;;;;;;;7.53;1.20;;;;;;;8.99;49.07;101263.97;5015555;28;124564;-67
2022/02/19 08:55:37;;;;;;;6.88;1.38;;;;;;;8.98;49.00;101259.59;5013157;28;110164;-67
2022/02/19 08:58:04;;;;;;;9.20;1.17;;;;;;;8.99;49.12;101271.91;5014442;28;109872;-67
2022/02/19 09:00:31;;;;;;;8.55;1.35;;;;;;;9.00;48.95;101268.31;5013724;28;123783;-67
2022/02/19 09:02:58;;;;;;;5.38;1.13;;;;;;;9.03;49.02;101272.66;5014448;28;124621;-67
2022/02/19 09:05:26;;;;;;;7.93;1.40;;;;;;;9.05;49.26;101276.97;5013290;28;109319;-67
2022/02/19 09:07:54;;;;;;;7.35;1.33;;;;;;;9.09;48.97;101278.59;5012169;28;109222;-67
2022/02/19 09:10:21;;;;;;;7.47;1.42;;;;;;;9.13;49.12;101282.88;5010910;28;124436;-67
2022/02/19 09:12:49;;;;;;;8.30;1.60;;;;;;;9.16;49.09;101279.28;5014460;28;123939;-67
2022/02/19 09:15:19;;;;;;;7.88;1.63;;;;;;;9.20;49.28;101280.06;5013336;28;109288;-67
2022/02/19 09:17:47;;;;;;;4.65;1.20;;;;;;;9.26;49.25;101280.69;5013420;28;108728;-67
2022/02/19 09:20:16;;;;;;;5.53;1.33;;;;;;;9.32;49.02;101279.63;5013270;28;122796;-67
2022/02/19 09:22:44;;;;;;;5.97;1.30;;;;;;;9.37;49.40;101283.00;5012144;28;125229;-67
2022/02/19 09:25:11;;;;;;;6.05;1.40;;;;;;;9.41;49.15;101289.91;5012687;28;109012;-67
2022/02/19 09:27:39;;;;;;;8.35;1.20;;;;;;;9.46;49.02;101292.44;5014779;28;109249;-66
2022/02/19 09:30:09;;;;;;;5.10;1.10;;;;;;;9.51;48.91;101287.81;5012847;28;125140;-66
2022/02/19 09:32:37;;;;;;;7.75;1.30;;;;;;;9.54;48.93;101290.38;4997388;28;122554;-68
2022/02/19 09:35:05;;;;;;;7.43;1.25;;;;;;;9.60;49.16;101289.31;5012857;28;109371;-67
2022/02/19 09:37:33;;;;;;;6.22;1.23;;;;;;;9.67;48.96;101293.47;5013193;28;108995;-67
2022/02/19 09:40:04;;;;;;;8.68;1.27;;;;;;;9.72;48.81;101294.19;5013200;28;123231;-67
2022/02/19 09:42:31;;;;;;;6.78;1.38;;;;;;;9.79;49.05;101297.47;5012642;28;123878;-67
2022/02/19 09:45:00;;;;;;;5.57;1.23;;;;;;;9.84;48.84;101299.03;5014195;28;110525;-67
2022/02/19 09:47:29;;;;;;;7.32;1.38;;;;;;;9.89;49.04;101302.41;5014063;28;109888;-67
2022/02/19 09:49:58;;;;;;;5.93;1.17;;;;;;;9.94;48.87;101308.41;5013390;28;123226;-68
2022/02/19 09:52:26;;;;;;;7.75;1.38;;;;;;;9.98;48.62;101305.63;5012778;28;124530;-67
2022/02/19 09:54:58;;;;;;;7.28;1.30;;;;;;;10.02;48.31;101307.25;5012608;28;109286;-68
2022/02/19 09:57:26;;;;;;;11.02;1.75;;;;;;;10.05;48.52;101304.50;5012558;28;109164;-67
2022/02/19 09:59:53;;;;;;;6.47;1.50;;;;;;;10.09;48.62;101311.41;5013059;28;123030;-67
2022/02/19 10:02:31;;;;;;;11.20;1.30;;;;;;;10.13;48.44;101310.38;5012550;28;124504;-67
2022/02/19 10:05:16;;;;;;;9.02;1.50;;;;;;;10.16;48.38;101315.56;5013749;28;108329;-67
2022/02/19 10:08:00;;;;;;;5.67;1.10;;;;;;;10.16;48.27;101318.22;5012322;28;109424;-67
2022/02/19 10:10:28;;;;;;;7.53;1.20;;;;;;;10.20;48.30;101317.19;5013605;28;124449;-67
2022/02/19 10:12:57;;;;;;;6.18;1.00;;;;;;;10.22;48.36;101311.84;5013327;28;123782;-67
2022/02/19 10:15:47;;;;;;;7.63;1.30;;;;;;;10.21;48.05;101329.53;5012474;28;109681;-67
2022/02/19 10:18:28;;;;;;;7.68;1.23;;;;;;;10.21;48.25;101334.81;5012219;28;108838;-67
2022/02/19 10:21:12;;;;;;;7.00;1.40;;;;;;;10.20;48.10;101322.47;5013787;28;124611;-67
2022/02/19 10:23:42;;;;;;;12.15;1.73;;;;;;;10.20;47.87;101330.41;5012771;28;124803;-67
2022/02/19 10:26:10;;;;;;;5.70;1.48;;;;;;;10.23;48.14;101317.09;5012086;28;109285;-67
2022/02/19 10:28:38;;;;;;;6.65;1.50;;;;;;;10.26;48.14;101311.66;5013360;28;109107;-67
2022/02/19 10:31:16;;;;;;;6.75;1.48;;;;;;;10.31;48.16;101325.63;5010811;28;123950;-67
2022/02/19 10:33:44;;;;;;;3.33;1.23;;;;;;;10.36;48.07;101316.66;5013885;28;124458;-67
2022/02/19 10:36:21;;;;;;;8.32;1.92;;;;;;;10.37;47.94;101318.41;5012497;28;109972;-67
2022/02/19 10:39:08;;;;;;;8.43;1.40;;;;;;;10.38;47.97;101322.75;4996975;28;109052;-67
2022/02/19 10:41:37;;;;;;;4.38;1.55;;;;;;;10.41;47.68;101330.59;5010395;28;124316;-67
2022/02/19 10:44:25;;;;;;;9.93;1.75;;;;;;;10.42;48.03;101335.84;5014081;28;124607;-67
2022/02/19 10:46:55;;;;;;;7.63;1.30;;;;;;;10.45;47.88;101342.81;5011841;28;109114;-67
2022/02/19 10:49:24;;;;;;;4.28;1.35;;;;;;;10.48;47.71;101343.56;5010024;28;109517;-67
2022/02/19 10:51:52;;;;;;;6.88;1.52;;;;;;;10.53;47.87;101340.75;5012951;28;124478;-70
2022/02/19 10:54:22;;;;;;;5.95;1.10;;;;;;;10.57;47.74;101342.38;5011774;28;124765;-67
2022/02/19 10:56:49;;;;;;;3.97;1.35;;;;;;;10.65;47.89;101329.69;5011773;28;109727;-67
2022/02/19 10:59:17;;;;;;;10.55;1.52;;;;;;;10.76;47.96;101336.38;5012820;28;109042;-67
2022/02/19 11:01:52;;;;;;;7.25;1.20;;;;;;;10.88;47.76;101344.72;5011838;28;124853;-67
2022/02/19 11:04:20;;;;;;;3.97;1.00;;;;;;;11.00;47.78;101335.44;5009754;28;124121;-67
2022/02/19 11:06:49;;;;;;;9.68;1.63;;;;;;;11.14;47.66;101336.69;5010418;28;109053;-67
2022/02/19 11:09:16;;;;;;;6.05;1.77;;;;;;;11.28;47.74;101342.28;5011299;28;109171;-67
2022/02/19 11:11:45;;;;;;;4.15;1.42;;;;;;;11.43;47.25;101339.03;5010346;28;124594;-67
2022/02/19 11:14:15;;;;;;;6.13;1.40;;;;;;;11.57;47.68;101342.91;5011065;28;124350;-67
2022/02/19 11:16:43;;;;;;;4.35;1.23;;;;;;;11.68;47.12;101348.66;5011551;28;110519;-66
2022/02/19 11:19:15;;;;;;;6.10;1.20;;;;;;;11.73;46.83;101343.97;5011676;28;108801;-66
2022/02/19 11:21:43;;;;;;;4.90;1.10;;;;;;;11.77;46.50;101342.94;5010392;28;124944;-66
2022/02/19 11:24:11;;;;;;;8.75;1.30;;;;;;;11.79;46.46;101330.47;5013584;28;124508;-66
2022/02/19 11:26:38;;;;;;;4.55;1.15;;;;;;;11.80;46.32;101320.72;5010876;28;110094;-66
2022/02/19 11:29:16;;;;;;;4.68;1.30;;;;;;;11.84;46.01;101327.63;5011078;28;110516;-66
2022/02/19 11:31:45;;;;;;;5.28;1.40;;;;;;;11.87;46.09;101328.34;5012897;28;124769;-67
2022/02/19 11:34:19;;;;;;;5.05;1.30;;;;;;;11.91;46.15;101344.19;5010672;28;123958;-67
2022/02/19 11:36:46;;;;;;;5.22;1.20;;;;;;;11.93;45.99;101332.56;5010055;28;109766;-66
2022/02/19 11:39:13;;;;;;;4.13;1.33;;;;;;;11.94;45.59;101333.44;5012787;28;109278;-66
2022/02/19 11:41:43;;;;;;;5.07;1.20;;;;;;;11.92;45.13;101324.66;5012328;28;124042;-66
2022/02/19 11:44:18;;;;;;;3.90;0.80;;;;;;;11.91;45.19;101334.44;5013546;28;123707;-67
2022/02/19 11:46:47;;;;;;;6.65;0.95;;;;;;;11.91;45.11;101328.25;5011784;28;108903;-67
2022/02/19 11:49:40;;;;;;;6.45;1.40;;;;;;;11.88;45.47;101327.44;5009731;28;108802;-67